Time;durP1;ratioP1;P1;durP2;ratioP2;P2;SDS_P1;SDS_P2;PMS_P1;PMS_P2;Temp;Humidity;BMP_temperature;BMP_pressure;BME280_temperature;BME280_humidity;BME280_pressure;Samples;Min_cycle;Max_cycle;Signal;HPM_P1;HPM_P2
2022/07/26 00:00:21;;;;;;;417.65;394.55;;;17.30;99.90;;;;;;5072816;28;20181;-61
2022/07/26 00:02:47;;;;;;;368.70;349.35;;;17.20;99.90;;;;;;5072761;28;20052;-60
2022/07/26 00:05:13;;;;;;;380.70;359.40;;;17.20;99.90;;;;;;5071485;28;20044;-60
2022/07/26 00:07:39;;;;;;;344.58;326.30;;;17.10;99.90;;;;;;5073089;28;20080;-60
2022/07/26 00:10:05;;;;;;;395.40;373.77;;;17.10;99.90;;;;;;5072796;28;20044;-60
2022/07/26 00:12:32;;;;;;;454.23;429.13;;;17.10;99.90;;;;;;5073758;28;20055;-60
2022/07/26 00:14:58;;;;;;;416.63;394.42;;;17.10;99.90;;;;;;5074693;28;20478;-60
2022/07/26 00:17:24;;;;;;;453.35;427.08;;;17.10;99.90;;;;;;5092975;28;20048;-60
2022/07/26 00:19:50;;;;;;;418.17;395.38;;;17.10;99.90;;;;;;5083926;28;20044;-60
2022/07/26 00:22:34;;;;;;;464.70;438.52;;;17.20;99.90;;;;;;5072453;28;20504;-60
2022/07/26 00:25:02;;;;;;;380.05;359.10;;;17.20;99.90;;;;;;5072778;28;20470;-60
2022/07/26 00:27:28;;;;;;;349.63;330.20;;;17.20;99.90;;;;;;5071725;28;20084;-60
2022/07/26 00:29:54;;;;;;;411.88;388.45;;;17.20;99.90;;;;;;5072290;28;20090;-60
2022/07/26 00:32:20;;;;;;;428.73;405.25;;;17.20;99.90;;;;;;5072420;28;20040;-60
2022/07/26 00:34:45;;;;;;;414.90;392.67;;;17.20;99.90;;;;;;5071239;28;20052;-60
2022/07/26 00:37:11;;;;;;;442.38;417.33;;;17.30;99.90;;;;;;5076775;28;20111;-60
2022/07/26 00:39:37;;;;;;;344.60;327.35;;;17.30;99.90;;;;;;5091909;28;20048;-60
2022/07/26 00:42:03;;;;;;;435.75;412.33;;;17.30;99.90;;;;;;5093938;28;20036;-60
2022/07/26 00:44:38;;;;;;;418.80;394.88;;;17.40;99.90;;;;;;5097142;28;20566;-60
2022/07/26 00:47:04;;;;;;;383.83;363.98;;;17.40;99.90;;;;;;5082163;28;20041;-60
2022/07/26 00:49:29;;;;;;;441.17;416.50;;;17.40;99.90;;;;;;5076225;28;20072;-60
2022/07/26 00:51:55;;;;;;;412.08;389.08;;;17.40;99.90;;;;;;5058540;28;20099;-60
2022/07/26 00:54:21;;;;;;;468.50;441.45;;;17.40;99.90;;;;;;5074910;28;20087;-60
2022/07/26 00:56:47;;;;;;;454.10;427.95;;;17.40;99.90;;;;;;5076334;28;20052;-60
2022/07/26 00:59:13;;;;;;;416.88;394.02;;;17.40;99.90;;;;;;5076129;28;20105;-60
2022/07/26 01:01:38;;;;;;;401.83;380.20;;;17.40;99.90;;;;;;5075341;28;20044;-60
2022/07/26 01:04:04;;;;;;;455.85;429.90;;;17.40;99.90;;;;;;5075407;28;20497;-60
2022/07/26 01:06:30;;;;;;;412.40;389.95;;;17.40;99.90;;;;;;5075964;28;20052;-60
2022/07/26 01:08:56;;;;;;;387.42;367.35;;;17.40;99.90;;;;;;5075156;28;20083;-60
2022/07/26 01:11:22;;;;;;;358.50;339.48;;;17.30;99.90;;;;;;5075822;28;20124;-60
2022/07/26 01:13:49;;;;;;;456.63;430.05;;;17.30;99.90;;;;;;5075859;28;20049;-60
2022/07/26 01:16:15;;;;;;;463.27;437.15;;;17.20;99.90;;;;;;5075247;28;20041;-60
2022/07/26 01:18:41;;;;;;;388.20;367.80;;;17.20;99.90;;;;;;5075580;28;20068;-60
2022/07/26 01:21:09;;;;;;;397.52;376.27;;;17.20;99.90;;;;;;5057392;28;20478;-60
2022/07/26 01:23:36;;;;;;;438.65;413.90;;;17.20;99.90;;;;;;5074235;28;20134;-60
2022/07/26 01:26:02;;;;;;;439.15;414.45;;;17.20;99.90;;;;;;5075265;28;20055;-60
2022/07/26 01:28:28;;;;;;;401.85;380.23;;;17.20;99.90;;;;;;5057340;28;20058;-60
2022/07/26 01:30:54;;;;;;;349.65;331.33;;;17.10;99.90;;;;;;5074395;28;20036;-60
2022/07/26 01:33:21;;;;;;;411.42;388.60;;;17.10;99.90;;;;;;5056524;28;20056;-60
2022/07/26 01:35:46;;;;;;;389.90;369.63;;;17.10;99.90;;;;;;5073720;28;20119;-60
2022/07/26 01:38:12;;;;;;;511.40;481.65;;;17.10;99.90;;;;;;5074845;28;20112;-60
2022/07/26 01:40:38;;;;;;;428.50;405.00;;;17.10;99.90;;;;;;5075002;28;20482;-60
2022/07/26 01:43:04;;;;;;;444.08;418.67;;;17.10;99.90;;;;;;5062919;28;20049;-60
2022/07/26 01:45:30;;;;;;;476.60;448.98;;;17.10;99.90;;;;;;5053760;28;20049;-60
2022/07/26 01:47:56;;;;;;;410.88;389.40;;;17.20;99.90;;;;;;5054835;28;20032;-60
2022/07/26 01:50:22;;;;;;;481.95;454.10;;;17.20;99.90;;;;;;5053135;28;20130;-60
2022/07/26 01:52:47;;;;;;;413.17;390.95;;;17.20;99.90;;;;;;5054309;28;20049;-60
2022/07/26 01:55:13;;;;;;;413.75;391.85;;;17.20;99.90;;;;;;5051555;28;20053;-60
2022/07/26 01:57:39;;;;;;;435.83;412.48;;;17.20;99.90;;;;;;5065502;28;20044;-60
2022/07/26 02:00:06;;;;;;;467.05;440.42;;;17.20;99.90;;;;;;5057265;28;20059;-60
2022/07/26 02:02:32;;;;;;;377.10;357.30;;;17.20;99.90;;;;;;5057424;28;20072;-60
2022/07/26 02:04:58;;;;;;;416.38;393.23;;;17.20;99.90;;;;;;5034499;28;20472;-60
2022/07/26 02:07:27;;;;;;;384.38;364.55;;;17.20;99.90;;;;;;5054000;28;20041;-60
2022/07/26 02:09:53;;;;;;;431.35;407.15;;;17.20;99.90;;;;;;5054914;28;20099;-60
2022/07/26 02:12:19;;;;;;;409.65;386.80;;;17.10;99.90;;;;;;5054185;28;20084;-60
2022/07/26 02:14:45;;;;;;;450.60;424.83;;;17.10;99.90;;;;;;5061183;28;20045;-60
2022/07/26 02:17:11;;;;;;;409.27;386.95;;;17.10;99.90;;;;;;5074510;28;20403;-60
2022/07/26 02:19:37;;;;;;;522.47;491.55;;;17.10;99.90;;;;;;5074238;28;20398;-60
2022/07/26 02:22:03;;;;;;;456.80;429.42;;;17.10;99.90;;;;;;5074757;28;20123;-60
2022/07/26 02:24:30;;;;;;;495.17;465.58;;;17.10;99.90;;;;;;5073979;28;20052;-60
2022/07/26 02:26:57;;;;;;;530.53;498.40;;;17.10;99.90;;;;;;5073875;28;20083;-60
2022/07/26 02:29:24;;;;;;;512.13;481.75;;;17.20;99.90;;;;;;5074819;28;20171;-60
2022/07/26 02:31:51;;;;;;;502.85;472.75;;;17.20;99.90;;;;;;5058786;28;20505;-60
2022/07/26 02:34:17;;;;;;;480.75;452.35;;;17.30;99.90;;;;;;5059686;28;20053;-60
2022/07/26 02:36:43;;;;;;;517.05;487.00;;;17.30;99.90;;;;;;5054665;28;20041;-60
2022/07/26 02:39:09;;;;;;;530.33;498.70;;;17.40;99.90;;;;;;5053610;28;20634;-60
2022/07/26 02:41:34;;;;;;;561.70;527.60;;;17.40;99.90;;;;;;5062946;28;20090;-60
2022/07/26 02:44:00;;;;;;;574.28;538.80;;;17.50;99.90;;;;;;5074073;28;20057;-60
2022/07/26 02:46:26;;;;;;;472.98;446.70;;;17.50;99.90;;;;;;5073471;28;20060;-60
2022/07/26 02:48:52;;;;;;;389.35;369.25;;;17.40;99.90;;;;;;5073691;28;20563;-60
2022/07/26 02:51:18;;;;;;;479.00;452.65;;;17.20;99.90;;;;;;5056864;28;20048;-60
2022/07/26 02:53:43;;;;;;;408.95;387.80;;;17.20;99.90;;;;;;5051887;28;20190;-60
2022/07/26 02:56:09;;;;;;;424.20;401.48;;;17.10;99.90;;;;;;5053461;28;20048;-60
2022/07/26 02:58:36;;;;;;;434.23;411.38;;;17.00;99.90;;;;;;5053608;28;20040;-61
2022/07/26 03:01:03;;;;;;;381.83;362.27;;;17.00;99.90;;;;;;5053192;28;20055;-61
2022/07/26 03:03:28;;;;;;;395.38;374.45;;;17.00;99.90;;;;;;5053330;28;20041;-60
2022/07/26 03:05:54;;;;;;;395.80;375.02;;;16.90;99.90;;;;;;5035216;28;20064;-61
2022/07/26 03:08:20;;;;;;;401.40;381.10;;;17.00;99.90;;;;;;5052777;28;20049;-60
2022/07/26 03:10:46;;;;;;;427.42;403.98;;;17.00;99.90;;;;;;5035589;28;20495;-60
2022/07/26 03:13:12;;;;;;;352.27;333.30;;;16.90;99.90;;;;;;5053628;28;20048;-61
2022/07/26 03:15:37;;;;;;;439.77;415.40;;;16.90;99.90;;;;;;5052738;28;20057;-60
2022/07/26 03:18:03;;;;;;;434.70;410.92;;;16.90;99.90;;;;;;5052788;28;20044;-61
2022/07/26 03:20:29;;;;;;;419.85;396.02;;;16.80;99.90;;;;;;5053256;28;20053;-60
2022/07/26 03:22:55;;;;;;;442.08;418.15;;;16.90;99.90;;;;;;5052454;28;20490;-60
2022/07/26 03:25:20;;;;;;;390.63;368.95;;;16.90;99.90;;;;;;5052376;28;20073;-60
2022/07/26 03:27:46;;;;;;;552.63;520.78;;;16.90;99.90;;;;;;5053059;28;20087;-60
2022/07/26 03:30:13;;;;;;;512.75;482.67;;;16.90;99.90;;;;;;5052295;28;20053;-60
2022/07/26 03:32:39;;;;;;;553.95;520.60;;;16.90;99.90;;;;;;5053088;28;20049;-60
2022/07/26 03:35:06;;;;;;;523.67;492.60;;;16.90;99.90;;;;;;5052764;28;20118;-60
2022/07/26 03:37:32;;;;;;;511.80;481.77;;;16.90;99.90;;;;;;5052123;28;20067;-60
2022/07/26 03:39:58;;;;;;;537.08;504.05;;;16.90;99.90;;;;;;5053036;28;20120;-60
2022/07/26 03:42:24;;;;;;;589.88;552.40;;;16.90;99.90;;;;;;5057389;28;20103;-60
2022/07/26 03:44:49;;;;;;;625.42;585.00;;;16.90;99.90;;;;;;5093163;28;20048;-60
2022/07/26 03:47:15;;;;;;;578.60;541.80;;;16.80;99.90;;;;;;5093235;28;20097;-60
2022/07/26 03:49:41;;;;;;;557.85;523.10;;;16.80;99.90;;;;;;5078314;28;20106;-60
2022/07/26 03:52:07;;;;;;;602.88;562.83;;;16.70;99.90;;;;;;5079765;28;20047;-60
2022/07/26 03:54:32;;;;;;;537.35;502.40;;;16.80;99.90;;;;;;5092969;28;20048;-60
2022/07/26 03:56:58;;;;;;;596.78;558.28;;;16.70;99.90;;;;;;5092424;28;20048;-60
2022/07/26 03:59:24;;;;;;;574.45;538.08;;;16.70;99.90;;;;;;5093463;28;20052;-60
2022/07/26 04:01:50;;;;;;;584.10;547.15;;;16.70;99.90;;;;;;5092151;28;20036;-60
2022/07/26 04:04:17;;;;;;;584.30;548.20;;;16.60;99.90;;;;;;5074360;28;20053;-60
2022/07/26 04:06:44;;;;;;;606.38;568.65;;;16.60;99.90;;;;;;5072778;28;20449;-60
2022/07/26 04:09:11;;;;;;;580.72;544.08;;;16.60;99.90;;;;;;5073865;28;20041;-60
2022/07/26 04:11:36;;;;;;;631.70;590.22;;;16.60;99.90;;;;;;5092253;28;20042;-60
2022/07/26 04:14:03;;;;;;;567.90;532.35;;;16.60;99.90;;;;;;5074756;28;20056;-60
2022/07/26 04:16:29;;;;;;;586.67;550.58;;;16.60;99.90;;;;;;5092728;28;20119;-60
2022/07/26 04:18:55;;;;;;;610.08;572.40;;;16.50;99.90;;;;;;5073785;28;20040;-60
2022/07/26 04:21:21;;;;;;;625.25;585.72;;;16.50;99.90;;;;;;5092813;28;20059;-60
2022/07/26 04:23:47;;;;;;;629.35;589.80;;;16.50;99.90;;;;;;5092691;28;20044;-60
2022/07/26 04:26:13;;;;;;;623.00;584.83;;;16.50;99.90;;;;;;5091894;28;20036;-60
2022/07/26 04:28:40;;;;;;;555.95;523.20;;;16.50;99.90;;;;;;5092181;28;20066;-60
2022/07/26 04:31:06;;;;;;;643.17;602.88;;;16.50;99.90;;;;;;5081694;28;20052;-60
2022/07/26 04:33:32;;;;;;;652.20;610.75;;;16.50;99.90;;;;;;5071863;28;20045;-60
2022/07/26 04:35:58;;;;;;;612.28;574.40;;;16.50;99.90;;;;;;5072385;28;20060;-60
2022/07/26 04:38:24;;;;;;;601.97;564.60;;;16.50;99.90;;;;;;5072295;28;20051;-60
2022/07/26 04:40:50;;;;;;;561.45;526.97;;;16.50;99.90;;;;;;5071480;28;20056;-60
2022/07/26 04:43:16;;;;;;;521.17;490.60;;;16.50;99.90;;;;;;5072281;28;20044;-60
2022/07/26 04:45:44;;;;;;;537.50;505.05;;;16.50;99.90;;;;;;5082666;28;20131;-60
2022/07/26 04:48:09;;;;;;;520.75;489.90;;;16.50;99.90;;;;;;5079138;28;20052;-60
2022/07/26 04:50:35;;;;;;;490.05;461.98;;;16.50;99.90;;;;;;5072656;28;20402;-60
2022/07/26 04:53:03;;;;;;;514.72;484.38;;;16.50;99.90;;;;;;5071419;28;20444;-60
2022/07/26 04:55:29;;;;;;;539.60;507.17;;;16.50;99.90;;;;;;5071806;28;20041;-60
2022/07/26 04:57:55;;;;;;;527.80;496.77;;;16.60;99.90;;;;;;5072499;28;20391;-60
2022/07/26 05:00:23;;;;;;;561.63;529.88;;;16.60;99.90;;;;;;5071474;28;20044;-60
2022/07/26 05:02:54;;;;;;;554.03;521.75;;;16.60;99.90;;;;;;5072280;28;20417;-60
2022/07/26 05:05:21;;;;;;;483.27;457.23;;;16.60;99.90;;;;;;5072152;28;20052;-60
2022/07/26 05:07:50;;;;;;;557.45;524.95;;;16.60;99.90;;;;;;5053209;28;20072;-60
2022/07/26 05:10:17;;;;;;;590.80;553.42;;;16.60;99.90;;;;;;5072083;28;20402;-60
2022/07/26 05:12:45;;;;;;;551.28;519.00;;;16.70;99.90;;;;;;5087199;28;20044;-60
2022/07/26 05:15:11;;;;;;;551.40;518.33;;;16.60;99.90;;;;;;5091072;28;20055;-60
2022/07/26 05:17:39;;;;;;;553.40;520.85;;;16.60;99.90;;;;;;5092562;28;20040;-60
2022/07/26 05:20:06;;;;;;;619.25;579.67;;;16.60;99.90;;;;;;5091597;28;20064;-60
2022/07/26 05:22:34;;;;;;;531.13;499.63;;;16.60;99.90;;;;;;5075690;28;20505;-60
2022/07/26 05:24:59;;;;;;;514.03;483.80;;;16.60;99.90;;;;;;5072243;28;20059;-60
2022/07/26 05:27:25;;;;;;;569.25;534.78;;;16.60;99.90;;;;;;5072768;28;20052;-60
2022/07/26 05:29:51;;;;;;;520.08;489.73;;;16.60;99.90;;;;;;5066068;28;20055;-60
2022/07/26 05:32:17;;;;;;;495.38;467.23;;;16.70;99.90;;;;;;5075501;28;20048;-60
2022/07/26 05:34:43;;;;;;;524.70;494.40;;;16.70;99.90;;;;;;5057589;28;20055;-60
2022/07/26 05:37:09;;;;;;;589.28;552.03;;;16.70;99.90;;;;;;5074521;28;20517;-60
2022/07/26 05:39:35;;;;;;;539.22;507.08;;;16.80;99.90;;;;;;5093074;28;20048;-59
2022/07/26 05:42:00;;;;;;;537.83;506.40;;;16.80;99.90;;;;;;5094790;28;20040;-60
2022/07/26 05:44:26;;;;;;;547.33;514.17;;;16.90;99.90;;;;;;5095504;28;20109;-60
2022/07/26 05:46:52;;;;;;;519.60;489.63;;;17.00;99.90;;;;;;5085557;28;20482;-60
2022/07/26 05:49:18;;;;;;;579.17;544.33;;;17.00;99.90;;;;;;5094841;28;20814;-60
2022/07/26 05:51:59;;;;;;;531.58;499.30;;;17.00;99.90;;;;;;5093769;28;20052;-60
2022/07/26 05:54:25;;;;;;;559.13;525.40;;;17.00;99.90;;;;;;5095442;28;20055;-60
2022/07/26 05:56:50;;;;;;;447.75;423.45;;;16.90;99.90;;;;;;5079977;28;20041;-60
2022/07/26 05:59:16;;;;;;;465.10;439.20;;;16.80;99.90;;;;;;5074876;28;20051;-59
2022/07/26 06:01:42;;;;;;;527.20;497.17;;;16.60;99.90;;;;;;5075208;28;20475;-60
2022/07/26 06:04:09;;;;;;;482.58;456.38;;;16.60;99.90;;;;;;5042156;28;20048;-60
2022/07/26 06:06:35;;;;;;;465.20;440.15;;;16.50;99.90;;;;;;5094633;28;20063;-60
2022/07/26 06:09:01;;;;;;;469.55;444.08;;;16.40;99.90;;;;;;5095335;28;20040;-59
2022/07/26 06:11:27;;;;;;;478.00;451.70;;;16.40;99.90;;;;;;5086309;28;20036;-60
2022/07/26 06:13:53;;;;;;;531.05;501.00;;;16.30;99.90;;;;;;5083362;28;20048;-59
2022/07/26 06:16:18;;;;;;;497.58;469.38;;;16.40;99.90;;;;;;5095162;28;20456;-60
2022/07/26 06:18:44;;;;;;;454.02;429.85;;;16.40;99.90;;;;;;5094392;28;20048;-61
2022/07/26 06:21:11;;;;;;;461.80;436.23;;;16.40;99.90;;;;;;5094854;28;20442;-62
2022/07/26 06:23:37;;;;;;;471.02;443.55;;;16.50;99.90;;;;;;5094110;28;20079;-61
2022/07/26 06:26:04;;;;;;;512.05;481.02;;;16.60;99.90;;;;;;5094019;28;20090;-61
2022/07/26 06:28:30;;;;;;;477.33;450.63;;;16.70;99.90;;;;;;5095105;28;20051;-61
2022/07/26 06:30:55;;;;;;;471.10;445.40;;;16.70;99.90;;;;;;5084873;28;20067;-60
2022/07/26 06:33:21;;;;;;;532.55;501.40;;;16.80;99.90;;;;;;5073550;28;20410;-61
2022/07/26 06:35:47;;;;;;;583.28;547.88;;;16.90;99.90;;;;;;5074553;28;20112;-61
2022/07/26 06:38:13;;;;;;;606.63;569.20;;;17.10;99.90;;;;;;5073493;28;20526;-61
2022/07/26 06:40:38;;;;;;;567.60;532.55;;;17.30;99.90;;;;;;5073096;28;20048;-60
2022/07/26 06:43:04;;;;;;;568.50;533.58;;;17.40;99.90;;;;;;5074294;28;20387;-61
2022/07/26 06:45:32;;;;;;;589.13;552.53;;;17.30;99.90;;;;;;5072989;28;20056;-61
2022/07/26 06:47:57;;;;;;;589.13;551.33;;;17.30;99.90;;;;;;5056525;28;20060;-61
2022/07/26 06:50:23;;;;;;;588.50;552.55;;;17.30;99.90;;;;;;5091821;28;20056;-60
2022/07/26 06:52:49;;;;;;;546.28;513.83;;;17.30;99.90;;;;;;5093268;28;20048;-61
2022/07/26 06:55:14;;;;;;;528.22;497.10;;;17.30;99.90;;;;;;5094338;28;20044;-61
2022/07/26 06:57:41;;;;;;;558.90;526.00;;;17.30;99.90;;;;;;5093702;28;20434;-61
2022/07/26 07:00:08;;;;;;;541.35;509.20;;;17.30;99.90;;;;;;5093167;28;20493;-61
2022/07/26 07:02:34;;;;;;;569.17;534.97;;;17.40;99.90;;;;;;5072670;28;20037;-61
2022/07/26 07:05:00;;;;;;;428.27;404.70;;;17.50;99.90;;;;;;5053863;28;20045;-60
2022/07/26 07:07:26;;;;;;;523.95;495.05;;;17.60;99.90;;;;;;5077791;28;20444;-61
2022/07/26 07:09:51;;;;;;;509.08;480.08;;;17.70;99.90;;;;;;5094149;28;20452;-61
2022/07/26 07:12:17;;;;;;;466.52;441.52;;;17.70;99.90;;;;;;5094097;28;20059;-61
2022/07/26 07:14:43;;;;;;;350.30;333.10;;;17.70;99.90;;;;;;5092891;28;20044;-61
2022/07/26 07:17:09;;;;;;;380.13;360.90;;;17.70;99.90;;;;;;5093400;28;20482;-60
2022/07/26 07:19:36;;;;;;;538.25;508.27;;;17.70;99.90;;;;;;5093971;28;20123;-61
2022/07/26 07:22:04;;;;;;;404.60;384.33;;;17.80;99.90;;;;;;5092841;28;20039;-61
2022/07/26 07:24:29;;;;;;;381.45;362.90;;;17.90;99.90;;;;;;5093367;28;20052;-61
2022/07/26 07:26:55;;;;;;;409.48;388.55;;;18.00;99.90;;;;;;5093996;28;20043;-61
2022/07/26 07:29:21;;;;;;;489.38;463.60;;;18.10;99.90;;;;;;5092598;28;20414;-61
2022/07/26 07:31:47;;;;;;;462.40;437.63;;;18.30;99.90;;;;;;5077150;28;20478;-61
2022/07/26 07:34:14;;;;;;;431.33;407.92;;;18.40;99.90;;;;;;5073692;28;20125;-61
2022/07/26 07:36:40;;;;;;;465.25;438.90;;;18.60;99.90;;;;;;5072448;28;20059;-61
2022/07/26 07:39:06;;;;;;;393.63;374.33;;;18.70;99.90;;;;;;5073367;28;20181;-60
2022/07/26 07:41:33;;;;;;;436.90;413.05;;;18.90;99.90;;;;;;5071891;28;20119;-61
2022/07/26 07:43:59;;;;;;;381.75;362.38;;;19.10;99.90;;;;;;5072531;28;20498;-61
2022/07/26 07:46:26;;;;;;;364.60;346.15;;;19.00;99.90;;;;;;5073085;28;20114;-61
2022/07/26 07:48:52;;;;;;;410.77;387.63;;;19.00;99.90;;;;;;5072382;28;20196;-61
2022/07/26 07:51:18;;;;;;;390.92;367.90;;;18.90;99.90;;;;;;5072261;28;20041;-61
2022/07/26 07:53:44;;;;;;;326.95;308.90;;;18.70;99.90;;;;;;5073156;28;20132;-61
2022/07/26 07:56:10;;;;;;;282.38;268.50;;;18.60;99.90;;;;;;5072435;28;20052;-61
2022/07/26 07:58:36;;;;;;;248.50;235.93;;;18.50;99.90;;;;;;5072470;28;20151;-60
2022/07/26 08:01:02;;;;;;;265.70;251.90;;;18.30;99.90;;;;;;5072509;28;20044;-60
2022/07/26 08:03:27;;;;;;;235.50;224.20;;;18.20;99.90;;;;;;5071790;28;20040;-61
2022/07/26 08:05:53;;;;;;;327.33;309.70;;;18.10;99.90;;;;;;5072598;28;20040;-61
2022/07/26 08:08:19;;;;;;;298.35;282.98;;;18.20;99.90;;;;;;5072421;28;20110;-61
2022/07/26 08:10:45;;;;;;;316.85;299.80;;;18.40;99.90;;;;;;5072274;28;20036;-61
2022/07/26 08:13:11;;;;;;;336.48;318.70;;;18.60;99.90;;;;;;5072325;28;20052;-61
2022/07/26 08:15:37;;;;;;;322.08;305.17;;;18.70;99.90;;;;;;5072893;28;20052;-60
2022/07/26 08:18:03;;;;;;;198.93;188.95;;;18.80;99.90;;;;;;5082389;28;20039;-61
2022/07/26 08:20:28;;;;;;;357.42;339.40;;;18.90;99.90;;;;;;5092816;28;20052;-61
2022/07/26 08:22:54;;;;;;;279.50;265.40;;;19.00;99.90;;;;;;5093092;28;20043;-61
2022/07/26 08:25:20;;;;;;;324.42;307.25;;;19.00;99.90;;;;;;5092224;28;20060;-61
2022/07/26 08:27:46;;;;;;;316.42;300.67;;;19.00;99.90;;;;;;5073508;28;20111;-61
2022/07/26 08:30:12;;;;;;;358.65;340.23;;;19.10;99.90;;;;;;5069123;28;20049;-61
2022/07/26 08:32:38;;;;;;;291.77;277.02;;;19.20;99.90;;;;;;5051785;28;20045;-61
2022/07/26 08:35:04;;;;;;;244.57;232.93;;;19.30;99.90;;;;;;5077509;28;20074;-61
2022/07/26 08:37:30;;;;;;;332.83;316.73;;;19.20;99.90;;;;;;5092936;28;20040;-61
2022/07/26 08:39:56;;;;;;;279.25;265.58;;;19.30;99.90;;;;;;5089670;28;20051;-61
2022/07/26 08:42:22;;;;;;;281.45;267.35;;;19.50;99.90;;;;;;5071797;28;20095;-61
2022/07/26 08:44:49;;;;;;;297.00;282.75;;;19.50;99.90;;;;;;5084323;28;20052;-62
2022/07/26 08:47:17;;;;;;;346.30;328.75;;;19.60;99.90;;;;;;5092759;28;20086;-61
2022/07/26 08:49:43;;;;;;;309.40;293.88;;;19.70;99.90;;;;;;5092458;28;20044;-61
2022/07/26 08:52:11;;;;;;;289.55;275.65;;;19.70;99.90;;;;;;5073164;28;20054;-61
2022/07/26 08:54:42;;;;;;;342.58;324.90;;;19.60;99.90;;;;;;5092699;28;20117;-61
2022/07/26 08:57:08;;;;;;;386.50;366.95;;;19.70;99.90;;;;;;5092298;28;20439;-61
2022/07/26 08:59:34;;;;;;;347.67;330.70;;;19.90;99.90;;;;;;5091773;28;20116;-61
2022/07/26 09:02:02;;;;;;;311.65;295.98;;;19.90;99.90;;;;;;5073546;28;20503;-61
2022/07/26 09:04:32;;;;;;;387.63;365.92;;;19.90;99.90;;;;;;5076307;28;20084;-61
2022/07/26 09:07:01;;;;;;;280.50;265.50;;;19.70;99.90;;;;;;5075465;28;20433;-60
2022/07/26 09:09:27;;;;;;;306.75;290.30;;;19.60;99.90;;;;;;5076175;28;20048;-61
2022/07/26 09:11:55;;;;;;;320.35;303.30;;;19.40;99.90;;;;;;5092686;28;20391;-61
2022/07/26 09:14:21;;;;;;;317.73;300.83;;;19.10;99.90;;;;;;5095288;28;20048;-61
2022/07/26 09:16:58;;;;;;;305.70;288.80;;;19.10;99.90;;;;;;5096446;28;20123;-61
2022/07/26 09:19:25;;;;;;;270.63;257.23;;;19.30;99.90;;;;;;5095330;28;20044;-61
2022/07/26 09:21:51;;;;;;;282.88;269.08;;;19.60;99.90;;;;;;5095246;28;20478;-61
2022/07/26 09:24:37;;;;;;;312.42;295.63;;;19.70;99.90;;;;;;5096149;28;20044;-61
2022/07/26 09:27:06;;;;;;;240.35;227.60;;;19.40;99.90;;;;;;5095171;28;20036;-61
2022/07/26 09:29:41;;;;;;;342.33;324.70;;;19.10;99.90;;;;;;5092416;28;20122;-61
2022/07/26 09:32:09;;;;;;;320.25;303.95;;;19.00;99.90;;;;;;5056623;28;20049;-61
2022/07/26 09:34:35;;;;;;;211.63;201.93;;;19.00;99.90;;;;;;5070752;28;20055;-61
2022/07/26 09:37:01;;;;;;;233.93;222.63;;;18.80;99.90;;;;;;5080524;28;20044;-61
2022/07/26 09:39:26;;;;;;;237.80;227.07;;;18.80;99.90;;;;;;5095955;28;20044;-61
2022/07/26 09:41:53;;;;;;;236.02;225.20;;;18.80;99.90;;;;;;5075086;28;20041;-61
2022/07/26 09:44:22;;;;;;;216.48;205.43;;;18.90;99.90;;;;;;5075679;28;20052;-61
2022/07/26 09:46:56;;;;;;;195.88;185.45;;;19.00;99.90;;;;;;5070241;28;20044;-60
2022/07/26 09:49:23;;;;;;;260.52;247.43;;;19.10;99.90;;;;;;5094766;28;20048;-61
2022/07/26 09:51:51;;;;;;;188.93;179.23;;;19.10;99.90;;;;;;5095714;28;20119;-61
2022/07/26 09:54:30;;;;;;;288.15;273.77;;;19.00;99.90;;;;;;5092843;28;20534;-61
2022/07/26 09:56:56;;;;;;;335.10;318.95;;;19.10;99.90;;;;;;5074157;28;20044;-61
2022/07/26 09:59:24;;;;;;;287.75;273.45;;;19.00;99.90;;;;;;5075189;28;20060;-61
2022/07/26 10:01:52;;;;;;;138.82;132.05;;;18.90;99.90;;;;;;5074947;28;20127;-61
2022/07/26 10:04:19;;;;;;;277.88;263.50;;;19.10;99.90;;;;;;5085189;28;20401;-61
2022/07/26 10:06:45;;;;;;;279.27;264.80;;;19.20;99.90;;;;;;5095440;28;20044;-61
2022/07/26 10:09:13;;;;;;;225.70;213.90;;;19.20;99.90;;;;;;5085788;28;20132;-61
2022/07/26 10:11:52;;;;;;;219.43;207.63;;;19.00;99.90;;;;;;5070474;28;20552;-61
2022/07/26 10:14:40;;;;;;;274.65;260.10;;;18.80;99.90;;;;;;5071630;28;20048;-61
2022/07/26 10:17:26;;;;;;;326.52;310.23;;;18.70;99.90;;;;;;5072308;28;20044;-61
2022/07/26 10:19:54;;;;;;;258.15;245.30;;;18.70;99.90;;;;;;5073926;28;20044;-60
2022/07/26 10:22:25;;;;;;;287.38;272.95;;;18.60;99.90;;;;;;5088882;28;20177;-60
2022/07/26 10:24:52;;;;;;;210.73;201.02;;;18.60;99.90;;;;;;5071217;28;20048;-61
2022/07/26 10:27:42;;;;;;;269.95;256.63;;;18.50;99.90;;;;;;5073672;28;20032;-60
2022/07/26 10:30:16;;;;;;;230.40;219.30;;;18.60;99.90;;;;;;5074529;28;20060;-61
2022/07/26 10:32:59;;;;;;;237.65;225.93;;;18.80;99.90;;;;;;5053492;28;20040;-60
2022/07/26 10:35:31;;;;;;;;;;;18.80;99.90;;;;;;5088818;28;20051;-61
2022/07/26 10:38:00;;;;;;;153.77;146.82;;;19.00;99.90;;;;;;5073919;28;20011;-61
2022/07/26 10:40:29;;;;;;;239.00;226.35;;;19.10;99.90;;;;;;5091694;28;20435;-61
2022/07/26 10:43:16;;;;;;;266.67;253.52;;;19.20;99.90;;;;;;5089247;28;20145;-61
2022/07/26 10:45:43;;;;;;;198.02;187.98;;;19.30;99.90;;;;;;5054414;28;20044;-61
2022/07/26 10:48:18;;;;;;;291.88;277.30;;;19.40;99.90;;;;;;5074900;28;20041;-61
2022/07/26 10:50:46;;;;;;;319.15;303.48;;;19.50;99.90;;;;;;5074093;28;20040;-61
2022/07/26 10:53:26;;;;;;;288.80;274.90;;;19.80;99.90;;;;;;5073553;28;20040;-61
2022/07/26 10:55:55;;;;;;;232.65;220.30;;;20.00;99.90;;;;;;5073843;28;20059;-61
2022/07/26 10:58:23;;;;;;;396.13;374.23;;;20.40;99.60;;;;;;5074828;28;20052;-61
2022/07/26 11:00:58;;;;;;;118.97;113.57;;;20.70;99.80;;;;;;5093757;28;20109;-61
2022/07/26 11:03:33;;;;;;;123.70;117.78;;;21.00;97.50;;;;;;5064743;28;20436;-61
2022/07/26 11:06:09;;;;;;;222.43;212.63;;;21.00;97.00;;;;;;5064689;28;20138;-61
2022/07/26 11:08:35;;;;;;;137.45;131.45;;;20.80;96.80;;;;;;5094291;28;20530;-61
2022/07/26 11:11:01;;;;;;;211.05;201.60;;;20.50;97.30;;;;;;5079995;28;20041;-61
2022/07/26 11:13:31;;;;;;;149.60;141.80;;;20.10;98.10;;;;;;5073176;28;20372;-62
2022/07/26 11:16:01;;;;;;;322.42;307.23;;;19.90;98.10;;;;;;5092547;28;20114;-61
2022/07/26 11:18:31;;;;;;;395.85;376.77;;;19.70;98.40;;;;;;5093429;28;20492;-62
2022/07/26 11:21:09;;;;;;;446.50;421.50;;;19.80;98.30;;;;;;5092937;28;20052;-61
2022/07/26 11:23:36;;;;;;;557.63;524.78;;;19.90;98.60;;;;;;5093270;28;20707;-61
2022/07/26 11:26:06;;;;;;;555.17;523.65;;;20.10;97.90;;;;;;5085319;28;20098;-61
2022/07/26 11:28:43;;;;;;;501.90;475.38;;;20.70;97.70;;;;;;5072743;28;20044;-61
2022/07/26 11:31:09;;;;;;;516.25;488.70;;;21.00;96.00;;;;;;5073551;28;20114;-62
2022/07/26 11:33:37;;;;;;;472.25;448.63;;;21.20;95.60;;;;;;5072142;28;20040;-62
2022/07/26 11:36:04;;;;;;;546.80;517.13;;;21.20;94.30;;;;;;5055470;28;20052;-59
2022/07/26 11:38:46;;;;;;;543.30;514.53;;;21.30;94.10;;;;;;5072615;28;20403;-59
2022/07/26 11:41:14;;;;;;;549.95;520.25;;;21.60;93.30;;;;;;5070237;28;20052;-59
2022/07/26 11:43:40;;;;;;;571.90;539.47;;;21.60;92.40;;;;;;5072417;28;20106;-59
2022/07/26 11:46:06;;;;;;;626.58;589.90;;;21.40;93.00;;;;;;5053455;28;20052;-58
2022/07/26 11:48:32;;;;;;;561.38;530.55;;;21.50;92.80;;;;;;5052134;28;20052;-58
2022/07/26 11:51:15;;;;;;;625.58;588.75;;;21.90;92.40;;;;;;5084961;28;20079;-59
2022/07/26 11:53:41;;;;;;;571.88;540.38;;;22.20;91.10;;;;;;5081629;28;20127;-59
2022/07/26 11:56:12;;;;;;;574.40;541.50;;;22.00;91.60;;;;;;5071238;28;20116;-59
2022/07/26 11:58:39;;;;;;;515.28;488.45;;;21.90;91.10;;;;;;5073191;28;20090;-59
2022/07/26 12:01:07;;;;;;;529.63;500.83;;;21.80;91.20;;;;;;5072644;28;20044;-59
2022/07/26 12:03:34;;;;;;;609.92;574.40;;;21.60;91.70;;;;;;5059839;28;20041;-59
2022/07/26 12:06:06;;;;;;;541.70;511.02;;;21.40;90.90;;;;;;5052971;28;20041;-59
2022/07/26 12:08:40;;;;;;;535.25;506.85;;;21.20;91.80;;;;;;5067048;28;20140;-59